CheckWX is a tool to help pilots better visualize weather data.  It is not intended as a substitute for an official pre-flight weather briefing.

06:02:29 UTC

LLHA METAR
Haifa International Airport
Haifa, Israel
Current

12 mins ago

LLHA 070550Z VRB01KT 9999 FEW040 13/09 Q1019
Observed
Dec-7 @ 05:50 UTC
Wind
  • Variable at 1 KTS
Visibility
10,000+ meters
Flight Rules
VFR
Cloud Levels
  • Few at 4,000' AGL
Temperature
13°C / 55°F
Dewpoint
C / 48°F
Humidity
77%
Altimeter
30.09" Hg
Pressure
1018.92 hPa
Previous

1 hour ago

LLHA 070450Z AUTO VRB02KT CAVOK 11/09 Q1018
Observed
Dec-7 @ 04:50 UTC
Wind
  • Variable at 2 KTS
Visibility
10,000+ meters
Flight Rules
VFR
Cloud Levels
  • Clear skies
Temperature
11°C / 52°F
Dewpoint
C / 48°F
Humidity
88%
Altimeter
30.06" Hg
Pressure
1017.92 hPa
Previous

2 hours ago

LLHA 070350Z AUTO VRB02KT CAVOK 12/09 Q1017 RMK BKN070
Observed
Dec-7 @ 03:50 UTC
Wind
  • Variable at 2 KTS
Visibility
10,000+ meters
Flight Rules
VFR
Cloud Levels
  • Clear skies
Temperature
12°C / 54°F
Dewpoint
C / 48°F
Humidity
82%
Altimeter
30.03" Hg
Pressure
1016.92 hPa